createdAt,value
2018-07-31T00:01:06.206Z,14.43
2018-07-31T00:03:35.363Z,14.93
2018-07-31T00:06:04.577Z,13.37
2018-07-31T00:08:33.646Z,21.57
2018-07-31T00:11:02.704Z,20.90
2018-07-31T00:13:31.861Z,17.37
2018-07-31T00:16:00.954Z,14.83
2018-07-31T00:18:30.083Z,17.17
2018-07-31T00:20:59.195Z,15.63
2018-07-31T00:23:28.241Z,15.73
2018-07-31T00:25:57.348Z,15.90
2018-07-31T00:28:26.416Z,17.00
2018-07-31T00:30:55.517Z,17.13
2018-07-31T00:33:24.586Z,14.00
2018-07-31T00:35:53.777Z,15.13
2018-07-31T00:38:23.143Z,14.87
2018-07-31T00:40:52.279Z,16.63
2018-07-31T00:43:21.326Z,19.00
2018-07-31T00:45:50.481Z,13.93
2018-07-31T00:48:19.592Z,17.93
2018-07-31T00:50:48.783Z,19.50
2018-07-31T00:53:17.912Z,15.33
2018-07-31T00:55:46.896Z,17.67
2018-07-31T00:58:15.995Z,18.30
2018-07-31T01:00:45.042Z,17.93
2018-07-31T01:03:14.193Z,17.33
2018-07-31T01:05:43.460Z,15.90
2018-07-31T01:08:12.558Z,17.73
2018-07-31T01:10:42.708Z,16.97
2018-07-31T01:13:12.239Z,17.37
2018-07-31T01:15:41.960Z,15.60
2018-07-31T01:18:11.364Z,15.97
2018-07-31T01:20:40.635Z,13.77
2018-07-31T01:23:10.070Z,17.20
2018-07-31T01:25:39.618Z,16.63
2018-07-31T01:28:09.000Z,21.90
2018-07-31T01:30:38.344Z,16.87
2018-07-31T01:33:07.662Z,17.70
2018-07-31T01:35:37.477Z,16.23
2018-07-31T01:38:06.822Z,19.83
2018-07-31T01:40:36.254Z,15.27
2018-07-31T01:43:05.681Z,17.40
2018-07-31T01:45:35.331Z,15.57
2018-07-31T01:48:04.657Z,21.23
2018-07-31T01:50:33.930Z,17.83
2018-07-31T01:53:03.338Z,21.23
2018-07-31T01:55:32.833Z,17.10
2018-07-31T01:58:02.147Z,15.63
2018-07-31T02:00:31.495Z,16.67
2018-07-31T02:03:00.683Z,17.10
2018-07-31T02:05:30.314Z,15.47
2018-07-31T02:07:59.996Z,14.50
2018-07-31T02:10:29.290Z,21.10
2018-07-31T02:12:58.338Z,15.10
2018-07-31T02:15:27.394Z,14.60
2018-07-31T02:17:56.365Z,16.20
2018-07-31T02:20:25.453Z,14.00
2018-07-31T02:22:54.489Z,21.10
2018-07-31T02:25:23.778Z,15.27
2018-07-31T02:27:52.784Z,17.80
2018-07-31T02:30:23.623Z,17.30
2018-07-31T02:32:53.121Z,14.80
2018-07-31T02:35:22.196Z,14.67
2018-07-31T02:37:51.231Z,15.93
2018-07-31T02:40:20.327Z,15.50
2018-07-31T02:42:49.346Z,19.17
2018-07-31T02:45:18.478Z,16.57
2018-07-31T02:47:47.611Z,17.63
2018-07-31T02:50:16.689Z,17.80
2018-07-31T02:52:45.634Z,19.80
2018-07-31T02:55:14.657Z,17.70
2018-07-31T02:57:44.016Z,16.40
2018-07-31T03:00:13.104Z,17.50
2018-07-31T03:02:42.678Z,21.27
2018-07-31T03:05:12.624Z,16.53
2018-07-31T03:07:42.140Z,17.80
2018-07-31T03:10:11.854Z,15.80
2018-07-31T03:12:41.415Z,19.40
2018-07-31T03:15:11.733Z,21.80
2018-07-31T03:17:41.209Z,16.03
2018-07-31T03:20:10.315Z,13.90
2018-07-31T03:22:39.443Z,16.83
2018-07-31T03:25:08.485Z,13.73
2018-07-31T03:27:37.491Z,21.07
2018-07-31T03:30:07.353Z,14.80
2018-07-31T03:32:36.323Z,20.10
2018-07-31T03:35:05.380Z,18.97
2018-07-31T03:37:34.590Z,22.10
2018-07-31T03:40:03.584Z,17.43
2018-07-31T03:42:32.698Z,16.13
2018-07-31T03:45:02.027Z,20.43
2018-07-31T03:47:31.086Z,15.50
2018-07-31T03:50:00.256Z,17.00
2018-07-31T03:52:29.269Z,17.27
2018-07-31T03:55:00.635Z,26.73
2018-07-31T03:57:29.740Z,15.07
2018-07-31T03:59:58.895Z,14.83
2018-07-31T04:02:27.906Z,16.10
2018-07-31T04:04:56.880Z,14.87
2018-07-31T04:07:25.925Z,19.23
2018-07-31T04:09:54.963Z,16.23
2018-07-31T04:12:23.932Z,15.43
2018-07-31T04:14:53.035Z,18.10
2018-07-31T04:17:22.149Z,15.37
2018-07-31T04:19:51.308Z,15.67
2018-07-31T04:22:20.345Z,16.50
2018-07-31T04:24:49.436Z,19.77
2018-07-31T04:27:18.452Z,17.83
2018-07-31T04:29:47.479Z,18.10
2018-07-31T04:32:16.850Z,18.33
2018-07-31T04:34:45.876Z,18.87
2018-07-31T04:37:15.304Z,19.33
2018-07-31T04:39:44.508Z,19.93
2018-07-31T04:42:13.797Z,17.50
2018-07-31T04:44:42.906Z,17.43
2018-07-31T04:47:11.872Z,16.37
2018-07-31T04:49:41.147Z,16.03
2018-07-31T04:52:10.407Z,16.10
2018-07-31T04:54:39.429Z,16.30
2018-07-31T04:57:09.023Z,16.03
2018-07-31T04:59:38.366Z,22.70
2018-07-31T05:02:07.396Z,14.67
2018-07-31T05:04:36.721Z,15.43
2018-07-31T05:07:06.131Z,16.57
2018-07-31T05:09:35.563Z,16.43
2018-07-31T05:12:04.607Z,14.60
2018-07-31T05:14:33.582Z,13.63
2018-07-31T05:17:02.627Z,16.10
2018-07-31T05:19:31.639Z,17.40
2018-07-31T05:22:01.886Z,25.50
2018-07-31T05:24:30.915Z,23.63
2018-07-31T05:26:59.992Z,22.27
2018-07-31T05:29:29.317Z,25.00
2018-07-31T05:31:58.320Z,21.13
2018-07-31T05:34:27.336Z,22.17
2018-07-31T05:36:56.390Z,21.23
2018-07-31T05:39:25.435Z,23.50
2018-07-31T05:41:54.525Z,25.27
2018-07-31T05:44:23.663Z,22.67
2018-07-31T05:46:52.691Z,23.20
2018-07-31T05:49:21.785Z,25.90
2018-07-31T05:51:51.568Z,21.70
2018-07-31T05:54:21.157Z,21.97
2018-07-31T05:56:50.134Z,16.10
2018-07-31T05:59:19.192Z,19.97
2018-07-31T06:01:48.307Z,21.53
2018-07-31T06:04:17.830Z,19.87
2018-07-31T06:06:46.999Z,23.17
2018-07-31T06:09:16.104Z,18.37
2018-07-31T06:11:45.483Z,20.73
2018-07-31T06:14:14.579Z,23.97
2018-07-31T06:16:44.035Z,24.30
2018-07-31T06:19:13.362Z,25.53
2018-07-31T06:21:42.439Z,28.53
2018-07-31T06:24:11.503Z,25.43
2018-07-31T06:26:40.695Z,19.53
2018-07-31T06:29:09.809Z,25.80
2018-07-31T06:31:38.998Z,23.20
2018-07-31T06:34:08.169Z,20.37
2018-07-31T06:36:37.227Z,21.30
2018-07-31T06:39:08.830Z,23.33
2018-07-31T06:41:37.974Z,20.40
2018-07-31T06:44:07.924Z,17.93
2018-07-31T06:46:37.321Z,25.17
2018-07-31T06:49:06.576Z,18.80
2018-07-31T06:51:36.039Z,25.83
2018-07-31T06:54:05.349Z,19.10
2018-07-31T06:56:34.468Z,26.57
2018-07-31T06:59:03.568Z,19.47
2018-07-31T07:01:32.909Z,33.37
2018-07-31T07:04:02.044Z,17.90
2018-07-31T07:06:31.157Z,20.00
2018-07-31T07:09:00.200Z,22.83
2018-07-31T07:11:29.479Z,22.87
2018-07-31T07:13:58.534Z,21.40
2018-07-31T07:16:27.762Z,19.47
2018-07-31T07:18:56.933Z,23.83
2018-07-31T07:21:25.897Z,17.07
2018-07-31T07:23:54.957Z,17.20
2018-07-31T07:26:24.110Z,32.17
2018-07-31T07:28:53.902Z,19.50
2018-07-31T07:31:23.364Z,19.07
2018-07-31T07:33:52.653Z,17.67
2018-07-31T07:36:21.859Z,17.50
2018-07-31T07:38:50.990Z,23.33
2018-07-31T07:41:20.425Z,22.83
2018-07-31T07:43:49.554Z,22.97
2018-07-31T07:46:18.563Z,24.00
2018-07-31T07:48:47.637Z,17.20
2018-07-31T07:51:16.707Z,28.47
2018-07-31T07:53:45.892Z,17.13
2018-07-31T07:56:16.056Z,18.43
2018-07-31T07:58:45.438Z,16.40
2018-07-31T08:01:14.884Z,20.27
2018-07-31T08:03:44.203Z,17.80
2018-07-31T08:06:13.619Z,15.53
2018-07-31T08:08:42.603Z,15.97
2018-07-31T08:11:11.639Z,15.60
2018-07-31T08:13:41.275Z,14.20
2018-07-31T08:16:10.464Z,16.93
2018-07-31T08:18:39.627Z,17.00
2018-07-31T08:21:08.726Z,15.73
2018-07-31T08:23:37.837Z,20.13
2018-07-31T08:26:07.219Z,16.90
2018-07-31T08:28:36.385Z,15.33
2018-07-31T08:31:06.019Z,14.17
2018-07-31T08:33:35.131Z,15.93
2018-07-31T08:36:04.312Z,14.10
2018-07-31T08:38:33.444Z,12.80
2018-07-31T08:41:05.594Z,14.63
2018-07-31T08:43:35.032Z,14.60
2018-07-31T08:46:04.139Z,13.00
2018-07-31T08:48:33.344Z,12.27
2018-07-31T08:51:02.427Z,12.40
2018-07-31T08:53:31.707Z,14.20
2018-07-31T08:56:00.778Z,14.17
2018-07-31T08:58:29.969Z,13.20
2018-07-31T09:00:59.001Z,24.07
2018-07-31T09:03:28.155Z,13.17
2018-07-31T09:05:57.193Z,16.20
2018-07-31T09:08:26.441Z,13.20
2018-07-31T09:10:55.634Z,12.00
2018-07-31T09:13:24.756Z,14.47
2018-07-31T09:15:53.847Z,14.67
2018-07-31T09:18:22.910Z,14.40
2018-07-31T09:20:51.932Z,14.20
2018-07-31T09:23:21.313Z,18.37
2018-07-31T09:25:50.436Z,19.60
2018-07-31T09:28:19.878Z,15.53
2018-07-31T09:31:24.331Z,12.87
2018-07-31T09:33:54.050Z,12.90
2018-07-31T09:36:23.251Z,12.63
2018-07-31T09:38:52.274Z,11.23
2018-07-31T09:41:21.395Z,14.73
2018-07-31T09:43:50.646Z,13.03
2018-07-31T09:46:19.754Z,10.03
2018-07-31T09:48:48.792Z,12.47
2018-07-31T09:51:17.965Z,11.73
2018-07-31T09:53:47.569Z,11.20
2018-07-31T09:56:17.627Z,9.90
2018-07-31T09:58:47.267Z,9.77
2018-07-31T10:01:19.630Z,11.13
2018-07-31T10:03:49.472Z,12.13
2018-07-31T10:06:18.641Z,10.50
2018-07-31T10:08:48.299Z,12.03
2018-07-31T10:11:18.747Z,9.60
2018-07-31T10:13:47.956Z,15.23
2018-07-31T10:16:17.368Z,10.63
2018-07-31T10:18:46.527Z,8.97
2018-07-31T10:21:15.655Z,8.63
2018-07-31T10:23:45.507Z,8.80
2018-07-31T10:26:14.624Z,8.60
2018-07-31T10:28:44.214Z,7.50
2018-07-31T10:31:13.313Z,7.43
2018-07-31T10:33:42.510Z,15.47
2018-07-31T10:36:11.545Z,13.13
2018-07-31T10:38:40.679Z,8.07
2018-07-31T10:41:09.842Z,8.70
2018-07-31T10:43:39.884Z,7.40
2018-07-31T10:46:10.468Z,8.30
2018-07-31T10:48:39.809Z,6.87
2018-07-31T10:51:09.890Z,10.73
2018-07-31T10:53:39.925Z,10.03
2018-07-31T10:56:09.227Z,7.10
2018-07-31T10:58:38.568Z,12.43
2018-07-31T11:01:07.777Z,8.60
2018-07-31T11:03:36.846Z,7.33
2018-07-31T11:06:05.994Z,7.30
2018-07-31T11:08:35.072Z,7.53
2018-07-31T11:11:04.290Z,6.73
2018-07-31T11:13:33.828Z,10.70
2018-07-31T11:16:03.043Z,7.10
2018-07-31T11:18:32.347Z,6.40
2018-07-31T11:21:01.637Z,5.87
2018-07-31T11:23:30.959Z,7.07
2018-07-31T11:26:00.181Z,10.00
2018-07-31T11:28:29.637Z,7.10
2018-07-31T11:30:59.217Z,9.13
2018-07-31T11:33:28.381Z,7.40
2018-07-31T11:35:58.107Z,7.20
2018-07-31T11:38:27.275Z,6.00
2018-07-31T11:40:56.319Z,7.47
2018-07-31T11:43:25.400Z,5.47
2018-07-31T11:45:54.507Z,9.03
2018-07-31T11:48:23.895Z,10.53
2018-07-31T11:50:53.018Z,5.67
2018-07-31T11:53:22.620Z,5.07
2018-07-31T11:55:52.062Z,5.60
2018-07-31T11:58:21.173Z,6.53
2018-07-31T12:00:50.424Z,6.73
2018-07-31T12:03:19.522Z,6.00
2018-07-31T12:05:48.668Z,10.43
2018-07-31T12:08:17.853Z,7.40
2018-07-31T12:10:47.825Z,5.20
2018-07-31T12:13:17.019Z,5.90
2018-07-31T12:15:46.186Z,9.20
2018-07-31T12:18:15.463Z,5.90
2018-07-31T12:20:45.570Z,5.63
2018-07-31T12:23:14.850Z,5.77
2018-07-31T12:25:44.079Z,5.40
2018-07-31T12:28:13.254Z,4.53
2018-07-31T12:30:42.898Z,5.93
2018-07-31T12:33:12.198Z,5.90
2018-07-31T12:35:41.431Z,5.50
2018-07-31T12:38:11.033Z,5.63
2018-07-31T12:40:40.139Z,5.10
2018-07-31T12:43:10.310Z,5.13
2018-07-31T12:45:39.481Z,5.70
2018-07-31T12:48:08.676Z,17.43
2018-07-31T12:50:37.691Z,6.17
2018-07-31T12:53:07.002Z,7.17
2018-07-31T12:55:36.761Z,6.40
2018-07-31T12:58:05.969Z,5.47
2018-07-31T13:00:35.259Z,6.23
2018-07-31T13:03:04.718Z,5.43
2018-07-31T13:05:33.791Z,6.23
2018-07-31T13:08:02.805Z,5.30
2018-07-31T13:10:32.863Z,5.50
2018-07-31T13:13:01.936Z,6.27
2018-07-31T13:15:30.934Z,4.90
2018-07-31T13:17:59.910Z,6.67
2018-07-31T13:20:29.018Z,6.80
2018-07-31T13:22:58.157Z,6.23
2018-07-31T13:25:27.212Z,6.87
2018-07-31T13:27:56.413Z,5.40
2018-07-31T13:30:25.477Z,8.90
2018-07-31T13:32:54.570Z,5.17
2018-07-31T13:35:23.664Z,6.53
2018-07-31T13:37:53.310Z,6.73
2018-07-31T13:40:22.468Z,6.43
2018-07-31T13:42:51.516Z,4.70
2018-07-31T13:45:20.793Z,5.83
2018-07-31T13:47:49.912Z,7.77
2018-07-31T13:50:19.029Z,6.53
2018-07-31T13:52:48.009Z,5.53
2018-07-31T13:55:17.202Z,5.70
2018-07-31T13:57:46.212Z,5.20
2018-07-31T14:00:15.373Z,6.13
2018-07-31T14:02:44.479Z,4.97
2018-07-31T14:05:13.499Z,5.53
2018-07-31T14:07:42.833Z,6.90
2018-07-31T14:10:11.852Z,7.20
2018-07-31T14:12:41.140Z,4.90
2018-07-31T14:15:10.368Z,4.07
2018-07-31T14:17:39.633Z,4.33
2018-07-31T14:20:08.744Z,5.60
2018-07-31T14:22:37.864Z,9.83
2018-07-31T14:25:07.009Z,7.37
2018-07-31T14:27:36.402Z,5.60
2018-07-31T14:30:07.072Z,13.80
2018-07-31T14:32:36.527Z,3.97
2018-07-31T14:35:05.731Z,5.10
2018-07-31T14:37:34.968Z,9.83
2018-07-31T14:40:04.151Z,3.60
2018-07-31T14:42:33.161Z,3.87
2018-07-31T14:45:02.264Z,3.77
2018-07-31T14:47:31.542Z,3.53
2018-07-31T14:50:01.065Z,3.20
2018-07-31T14:52:30.160Z,2.83
2018-07-31T14:54:59.235Z,2.47
2018-07-31T14:57:28.943Z,3.20
2018-07-31T14:59:58.011Z,2.60
2018-07-31T15:02:27.049Z,4.90
2018-07-31T15:04:56.334Z,4.10
2018-07-31T15:07:25.375Z,4.07
2018-07-31T15:09:54.653Z,2.70
2018-07-31T15:12:23.731Z,2.50
2018-07-31T15:14:53.124Z,3.13
2018-07-31T15:17:22.389Z,4.40
2018-07-31T15:19:51.469Z,2.93
2018-07-31T15:22:20.492Z,4.60
2018-07-31T15:24:49.570Z,3.20
2018-07-31T15:27:18.694Z,7.10
2018-07-31T15:29:47.807Z,8.30
2018-07-31T15:32:16.875Z,3.80
2018-07-31T15:34:45.997Z,6.00
2018-07-31T15:37:15.498Z,3.70
2018-07-31T15:39:44.616Z,15.53
2018-07-31T15:42:14.182Z,7.80
2018-07-31T15:44:43.276Z,3.40
2018-07-31T15:47:12.309Z,4.00
2018-07-31T15:49:41.458Z,3.57
2018-07-31T15:52:10.758Z,5.47
2018-07-31T15:54:39.822Z,3.57
2018-07-31T15:57:08.918Z,6.30
2018-07-31T15:59:38.098Z,5.13
2018-07-31T16:02:07.987Z,4.10
2018-07-31T16:04:37.069Z,6.00
2018-07-31T16:07:06.239Z,5.50
2018-07-31T16:09:35.316Z,3.70
2018-07-31T16:12:04.312Z,6.27
2018-07-31T16:14:33.565Z,3.20
2018-07-31T16:17:03.338Z,3.77
2018-07-31T16:19:32.344Z,4.90
2018-07-31T16:22:01.404Z,3.47
2018-07-31T16:24:31.257Z,4.70
2018-07-31T16:27:01.060Z,3.60
2018-07-31T16:29:31.451Z,3.80
2018-07-31T16:32:00.860Z,5.50
2018-07-31T16:34:30.447Z,9.00
2018-07-31T16:36:59.486Z,4.63
2018-07-31T16:39:28.668Z,7.93
2018-07-31T16:41:58.072Z,9.27
2018-07-31T16:44:27.230Z,3.60
2018-07-31T16:46:56.405Z,10.53
2018-07-31T16:49:27.521Z,48.47
2018-07-31T16:51:56.529Z,28.97
2018-07-31T16:54:26.417Z,23.83
2018-07-31T16:56:55.576Z,30.10
2018-07-31T16:59:24.714Z,15.73
2018-07-31T17:01:53.831Z,14.20
2018-07-31T17:04:22.872Z,6.50
2018-07-31T17:06:51.994Z,4.43
2018-07-31T17:09:21.022Z,5.30
2018-07-31T17:11:51.064Z,4.67
2018-07-31T17:14:20.907Z,4.30
2018-07-31T17:16:49.999Z,4.73
2018-07-31T17:19:19.040Z,5.73
2018-07-31T17:21:48.107Z,6.93
2018-07-31T17:24:17.163Z,20.57
2018-07-31T17:26:46.308Z,7.63
2018-07-31T17:29:15.382Z,4.87
2018-07-31T17:31:44.429Z,6.10
2018-07-31T17:34:13.477Z,12.13
2018-07-31T17:36:42.834Z,3.90
2018-07-31T17:39:12.425Z,4.20
2018-07-31T17:41:42.204Z,5.00
2018-07-31T17:44:11.227Z,10.30
2018-07-31T17:46:40.292Z,4.73
2018-07-31T17:49:09.504Z,11.63
2018-07-31T17:51:38.669Z,4.13
2018-07-31T17:54:08.156Z,7.03
2018-07-31T17:56:37.986Z,4.63
2018-07-31T17:59:07.120Z,13.10
2018-07-31T18:01:36.186Z,5.00
2018-07-31T18:04:05.878Z,7.13
2018-07-31T18:06:34.905Z,6.13
2018-07-31T18:09:04.206Z,5.00
2018-07-31T18:11:33.935Z,9.10
2018-07-31T18:14:03.194Z,5.50
2018-07-31T18:16:33.621Z,4.87
2018-07-31T18:19:04.863Z,4.63
2018-07-31T18:21:37.480Z,5.20
2018-07-31T18:24:07.291Z,6.23
2018-07-31T18:26:36.909Z,7.17
2018-07-31T18:29:06.903Z,7.33
2018-07-31T18:31:36.107Z,7.63
2018-07-31T18:34:05.871Z,5.57
2018-07-31T18:36:36.306Z,6.23
2018-07-31T18:39:08.368Z,7.90
2018-07-31T18:41:37.565Z,5.67
2018-07-31T18:44:06.847Z,6.60
2018-07-31T18:46:36.085Z,9.10
2018-07-31T18:49:05.284Z,7.33
2018-07-31T18:51:34.769Z,6.87
2018-07-31T18:54:04.330Z,6.90
2018-07-31T18:56:34.687Z,6.43
2018-07-31T18:59:04.124Z,6.30
2018-07-31T19:01:34.708Z,6.23
2018-07-31T19:04:03.980Z,16.17
2018-07-31T19:06:33.173Z,12.30
2018-07-31T19:09:02.461Z,6.37
2018-07-31T19:11:31.707Z,9.17
2018-07-31T19:14:00.816Z,6.03
2018-07-31T19:16:29.892Z,6.13
2018-07-31T19:18:59.324Z,6.17
2018-07-31T19:21:29.765Z,6.40
2018-07-31T19:23:59.412Z,5.40
2018-07-31T19:26:29.351Z,6.70
2018-07-31T19:28:58.632Z,7.07
2018-07-31T19:31:28.809Z,7.87
2018-07-31T19:33:58.155Z,8.60
2018-07-31T19:36:27.341Z,7.47
2018-07-31T19:38:57.321Z,7.00
2018-07-31T19:41:28.659Z,6.10
2018-07-31T19:43:58.251Z,6.63
2018-07-31T19:46:28.080Z,10.30
2018-07-31T19:48:57.438Z,7.97
2018-07-31T19:51:27.157Z,7.30
2018-07-31T19:53:56.527Z,7.93
2018-07-31T19:56:26.102Z,8.03
2018-07-31T19:58:55.416Z,9.60
2018-07-31T20:01:24.784Z,6.27
2018-07-31T20:03:56.775Z,7.20
2018-07-31T20:06:26.972Z,7.07
2018-07-31T20:08:58.793Z,8.53
2018-07-31T20:11:29.114Z,11.37
2018-07-31T20:13:58.835Z,8.90
2018-07-31T20:16:28.507Z,7.33
2018-07-31T20:18:57.687Z,7.97
2018-07-31T20:21:26.979Z,7.73
2018-07-31T20:23:56.272Z,6.80
2018-07-31T20:26:25.625Z,7.80
2018-07-31T20:28:55.026Z,8.93
2018-07-31T20:31:25.242Z,7.50
2018-07-31T20:33:54.359Z,7.20
2018-07-31T20:36:24.891Z,10.70
2018-07-31T20:38:53.983Z,8.53
2018-07-31T20:41:23.227Z,9.23
2018-07-31T20:43:52.481Z,11.37
2018-07-31T20:46:21.684Z,10.57
2018-07-31T20:48:51.436Z,10.83
2018-07-31T20:51:24.313Z,12.97
2018-07-31T20:53:53.426Z,9.83
2018-07-31T20:56:22.596Z,7.90
2018-07-31T20:58:51.955Z,9.47
2018-07-31T21:01:21.858Z,9.13
2018-07-31T21:03:51.033Z,10.20
2018-07-31T21:06:20.281Z,12.63
2018-07-31T21:08:49.590Z,11.10
2018-07-31T21:11:19.060Z,8.70
2018-07-31T21:13:48.202Z,12.80
2018-07-31T21:16:17.405Z,9.33
2018-07-31T21:18:46.946Z,10.50
2018-07-31T21:21:16.096Z,9.30
2018-07-31T21:23:45.272Z,8.07
2018-07-31T21:26:14.488Z,10.70
2018-07-31T21:28:43.718Z,13.63
2018-07-31T21:31:13.005Z,7.87
2018-07-31T21:33:42.102Z,11.70
2018-07-31T21:36:11.168Z,10.87
2018-07-31T21:38:40.242Z,10.10
2018-07-31T21:41:10.721Z,7.93
2018-07-31T21:43:39.898Z,8.40
2018-07-31T21:46:09.000Z,9.93
2018-07-31T21:48:38.738Z,10.00
2018-07-31T21:51:07.817Z,8.57
2018-07-31T21:53:37.113Z,10.63
2018-07-31T21:56:06.164Z,9.90
2018-07-31T21:58:35.347Z,8.17
2018-07-31T22:01:07.984Z,11.57
2018-07-31T22:03:38.909Z,12.40
2018-07-31T22:06:08.277Z,9.63
2018-07-31T22:08:38.087Z,8.90
2018-07-31T22:11:07.428Z,10.40
2018-07-31T22:13:36.507Z,10.67
2018-07-31T22:16:06.497Z,8.97
2018-07-31T22:18:35.743Z,10.20
2018-07-31T22:21:04.923Z,10.47
2018-07-31T22:23:34.003Z,10.07
2018-07-31T22:26:03.059Z,13.37
2018-07-31T22:28:32.215Z,14.80
2018-07-31T22:31:01.225Z,11.00
2018-07-31T22:33:30.346Z,8.47
2018-07-31T22:35:59.417Z,13.90
2018-07-31T22:38:28.651Z,13.77
2018-07-31T22:40:57.823Z,11.27
2018-07-31T22:43:27.069Z,13.00
2018-07-31T22:45:56.126Z,9.30
2018-07-31T22:48:25.200Z,9.27
2018-07-31T22:50:54.315Z,12.13
2018-07-31T22:53:23.387Z,11.70
2018-07-31T22:55:52.547Z,15.00
2018-07-31T22:58:21.597Z,11.40
2018-07-31T23:00:50.819Z,11.67
2018-07-31T23:03:19.816Z,11.40
2018-07-31T23:05:48.900Z,9.77
2018-07-31T23:08:17.959Z,8.70
2018-07-31T23:10:46.970Z,8.63
2018-07-31T23:13:16.269Z,12.87
2018-07-31T23:15:45.470Z,11.00
2018-07-31T23:18:14.579Z,12.50
2018-07-31T23:20:43.710Z,12.03
2018-07-31T23:23:12.731Z,12.00
2018-07-31T23:25:41.920Z,9.20
2018-07-31T23:28:10.908Z,17.37
2018-07-31T23:30:40.248Z,12.17
2018-07-31T23:33:09.287Z,13.73
2018-07-31T23:35:38.567Z,10.90
2018-07-31T23:38:08.420Z,10.23
2018-07-31T23:40:37.570Z,15.50
2018-07-31T23:43:06.655Z,15.73
2018-07-31T23:45:35.782Z,10.30
2018-07-31T23:48:04.811Z,16.63
2018-07-31T23:50:33.829Z,10.63
2018-07-31T23:53:02.986Z,11.43
2018-07-31T23:55:32.021Z,9.43
2018-07-31T23:58:01.137Z,15.33
